sensor_id;sensor_type;location;lat;lon;timestamp;temperature;humidity
7163;DHT22;3623;47.098;15.446;2023-06-10T00:01:58;15.10;99.90
7163;DHT22;3623;47.098;15.446;2023-06-10T00:04:26;15.20;99.90
7163;DHT22;3623;47.098;15.446;2023-06-10T00:06:54;15.10;99.90
7163;DHT22;3623;47.098;15.446;2023-06-10T00:09:21;15.10;99.90
7163;DHT22;3623;47.098;15.446;2023-06-10T00:11:48;15.10;99.90
7163;DHT22;3623;47.098;15.446;2023-06-10T00:14:15;15.00;99.90
7163;DHT22;3623;47.098;15.446;2023-06-10T00:16:44;15.00;99.90
7163;DHT22;3623;47.098;15.446;2023-06-10T00:19:12;15.00;99.90
7163;DHT22;3623;47.098;15.446;2023-06-10T00:21:41;14.90;99.90
7163;DHT22;3623;47.098;15.446;2023-06-10T00:24:10;14.90;99.90
7163;DHT22;3623;47.098;15.446;2023-06-10T00:26:38;14.90;99.90
7163;DHT22;3623;47.098;15.446;2023-06-10T00:29:06;14.90;99.90
7163;DHT22;3623;47.098;15.446;2023-06-10T00:31:34;14.90;99.90
7163;DHT22;3623;47.098;15.446;2023-06-10T00:34:02;14.80;99.90
7163;DHT22;3623;47.098;15.446;2023-06-10T00:36:30;14.90;99.90
7163;DHT22;3623;47.098;15.446;2023-06-10T00:38:57;14.70;99.90
7163;DHT22;3623;47.098;15.446;2023-06-10T00:41:24;14.80;99.90
7163;DHT22;3623;47.098;15.446;2023-06-10T00:43:53;14.80;99.90
7163;DHT22;3623;47.098;15.446;2023-06-10T00:46:20;14.80;99.90
7163;DHT22;3623;47.098;15.446;2023-06-10T00:48:47;14.80;99.90
7163;DHT22;3623;47.098;15.446;2023-06-10T00:51:17;14.70;99.90
7163;DHT22;3623;47.098;15.446;2023-06-10T00:53:45;14.80;99.90
7163;DHT22;3623;47.098;15.446;2023-06-10T00:56:13;14.70;99.90
7163;DHT22;3623;47.098;15.446;2023-06-10T00:58:41;14.60;99.90
7163;DHT22;3623;47.098;15.446;2023-06-10T01:01:08;14.70;99.90
7163;DHT22;3623;47.098;15.446;2023-06-10T01:03:36;14.60;99.90
7163;DHT22;3623;47.098;15.446;2023-06-10T01:06:09;14.60;99.90
7163;DHT22;3623;47.098;15.446;2023-06-10T01:08:54;14.60;99.90
7163;DHT22;3623;47.098;15.446;2023-06-10T01:11:28;14.80;99.90
7163;DHT22;3623;47.098;15.446;2023-06-10T01:13:56;14.60;99.90
7163;DHT22;3623;47.098;15.446;2023-06-10T01:16:25;14.60;99.90
7163;DHT22;3623;47.098;15.446;2023-06-10T01:18:52;14.80;99.90
7163;DHT22;3623;47.098;15.446;2023-06-10T01:21:22;14.50;99.90
7163;DHT22;3623;47.098;15.446;2023-06-10T01:23:51;14.50;99.90
7163;DHT22;3623;47.098;15.446;2023-06-10T01:28:51;14.60;99.90
7163;DHT22;3623;47.098;15.446;2023-06-10T01:31:31;14.40;99.90
7163;DHT22;3623;47.098;15.446;2023-06-10T01:34:00;14.50;99.90
7163;DHT22;3623;47.098;15.446;2023-06-10T01:36:31;14.40;99.90
7163;DHT22;3623;47.098;15.446;2023-06-10T01:39:00;14.40;99.90
7163;DHT22;3623;47.098;15.446;2023-06-10T01:41:28;14.30;99.90
7163;DHT22;3623;47.098;15.446;2023-06-10T01:43:56;14.30;99.90
7163;DHT22;3623;47.098;15.446;2023-06-10T01:46:23;14.70;99.90
7163;DHT22;3623;47.098;15.446;2023-06-10T01:48:50;14.20;99.90
7163;DHT22;3623;47.098;15.446;2023-06-10T01:51:17;14.30;99.90
7163;DHT22;3623;47.098;15.446;2023-06-10T01:53:46;14.20;99.90
7163;DHT22;3623;47.098;15.446;2023-06-10T01:56:14;14.20;99.90
7163;DHT22;3623;47.098;15.446;2023-06-10T01:58:45;14.30;99.90
7163;DHT22;3623;47.098;15.446;2023-06-10T02:01:12;14.30;99.90
7163;DHT22;3623;47.098;15.446;2023-06-10T02:03:39;13.90;99.90
7163;DHT22;3623;47.098;15.446;2023-06-10T02:06:06;14.20;99.90
7163;DHT22;3623;47.098;15.446;2023-06-10T02:08:33;14.20;99.90
7163;DHT22;3623;47.098;15.446;2023-06-10T02:11:02;14.20;99.90
7163;DHT22;3623;47.098;15.446;2023-06-10T02:13:29;14.10;99.90
7163;DHT22;3623;47.098;15.446;2023-06-10T02:15:56;14.10;99.90
7163;DHT22;3623;47.098;15.446;2023-06-10T02:18:23;14.10;99.90
7163;DHT22;3623;47.098;15.446;2023-06-10T02:20:52;14.10;99.90
7163;DHT22;3623;47.098;15.446;2023-06-10T02:23:19;14.10;99.90
7163;DHT22;3623;47.098;15.446;2023-06-10T02:25:46;14.30;99.90
7163;DHT22;3623;47.098;15.446;2023-06-10T02:28:15;14.10;99.90
7163;DHT22;3623;47.098;15.446;2023-06-10T02:30:42;14.10;99.90
7163;DHT22;3623;47.098;15.446;2023-06-10T02:33:10;14.10;99.90
7163;DHT22;3623;47.098;15.446;2023-06-10T02:35:38;14.00;99.90
7163;DHT22;3623;47.098;15.446;2023-06-10T02:38:05;14.00;99.90
7163;DHT22;3623;47.098;15.446;2023-06-10T02:40:32;14.00;99.90
7163;DHT22;3623;47.098;15.446;2023-06-10T02:42:59;13.80;99.90
7163;DHT22;3623;47.098;15.446;2023-06-10T02:47:55;13.80;99.90
7163;DHT22;3623;47.098;15.446;2023-06-10T02:50:22;13.80;99.90
7163;DHT22;3623;47.098;15.446;2023-06-10T02:52:49;13.80;99.90
7163;DHT22;3623;47.098;15.446;2023-06-10T02:55:16;13.70;99.90
7163;DHT22;3623;47.098;15.446;2023-06-10T02:57:44;13.90;99.90
7163;DHT22;3623;47.098;15.446;2023-06-10T03:00:11;13.80;99.90
7163;DHT22;3623;47.098;15.446;2023-06-10T03:02:41;14.00;99.90
7163;DHT22;3623;47.098;15.446;2023-06-10T03:05:08;14.00;99.90
7163;DHT22;3623;47.098;15.446;2023-06-10T03:07:36;14.10;99.90
7163;DHT22;3623;47.098;15.446;2023-06-10T03:10:04;14.10;99.90
7163;DHT22;3623;47.098;15.446;2023-06-10T03:12:32;14.20;99.90
7163;DHT22;3623;47.098;15.446;2023-06-10T03:14:59;14.10;99.90
7163;DHT22;3623;47.098;15.446;2023-06-10T03:17:26;14.10;99.90
7163;DHT22;3623;47.098;15.446;2023-06-10T03:19:57;14.30;99.90
7163;DHT22;3623;47.098;15.446;2023-06-10T03:22:24;14.40;99.90
7163;DHT22;3623;47.098;15.446;2023-06-10T03:24:51;14.40;99.90
7163;DHT22;3623;47.098;15.446;2023-06-10T03:27:20;14.40;99.90
7163;DHT22;3623;47.098;15.446;2023-06-10T03:29:49;14.40;99.90
7163;DHT22;3623;47.098;15.446;2023-06-10T03:32:16;14.30;99.90
7163;DHT22;3623;47.098;15.446;2023-06-10T03:34:43;14.30;99.90
7163;DHT22;3623;47.098;15.446;2023-06-10T03:37:14;14.40;99.90
7163;DHT22;3623;47.098;15.446;2023-06-10T03:39:42;14.40;99.90
7163;DHT22;3623;47.098;15.446;2023-06-10T03:42:09;14.30;99.90
7163;DHT22;3623;47.098;15.446;2023-06-10T03:44:36;14.50;99.90
7163;DHT22;3623;47.098;15.446;2023-06-10T03:47:04;14.60;99.90
7163;DHT22;3623;47.098;15.446;2023-06-10T03:49:31;14.40;99.90
7163;DHT22;3623;47.098;15.446;2023-06-10T03:51:58;14.60;99.90
7163;DHT22;3623;47.098;15.446;2023-06-10T03:54:27;14.60;99.90
7163;DHT22;3623;47.098;15.446;2023-06-10T03:56:54;14.50;99.90
7163;DHT22;3623;47.098;15.446;2023-06-10T03:59:21;14.50;99.90
7163;DHT22;3623;47.098;15.446;2023-06-10T04:01:48;14.60;99.90
7163;DHT22;3623;47.098;15.446;2023-06-10T04:04:15;14.60;99.90
7163;DHT22;3623;47.098;15.446;2023-06-10T04:06:43;14.70;99.90
7163;DHT22;3623;47.098;15.446;2023-06-10T04:09:10;14.70;99.90
7163;DHT22;3623;47.098;15.446;2023-06-10T04:11:39;14.70;99.90
7163;DHT22;3623;47.098;15.446;2023-06-10T04:14:06;14.80;99.90
7163;DHT22;3623;47.098;15.446;2023-06-10T04:16:34;14.80;99.90
7163;DHT22;3623;47.098;15.446;2023-06-10T04:19:01;14.80;99.90
7163;DHT22;3623;47.098;15.446;2023-06-10T04:21:28;14.80;99.90
7163;DHT22;3623;47.098;15.446;2023-06-10T04:23:55;14.80;99.90
7163;DHT22;3623;47.098;15.446;2023-06-10T04:26:23;14.80;99.90
7163;DHT22;3623;47.098;15.446;2023-06-10T04:28:52;14.80;99.90
7163;DHT22;3623;47.098;15.446;2023-06-10T04:31:19;15.00;99.90
7163;DHT22;3623;47.098;15.446;2023-06-10T04:33:47;15.00;99.90
7163;DHT22;3623;47.098;15.446;2023-06-10T04:36:14;15.00;99.90
7163;DHT22;3623;47.098;15.446;2023-06-10T04:38:41;15.10;99.90
7163;DHT22;3623;47.098;15.446;2023-06-10T04:41:08;15.60;99.90
7163;DHT22;3623;47.098;15.446;2023-06-10T04:43:36;15.30;99.90
7163;DHT22;3623;47.098;15.446;2023-06-10T04:46:04;15.20;99.90
7163;DHT22;3623;47.098;15.446;2023-06-10T04:48:32;15.40;99.90
7163;DHT22;3623;47.098;15.446;2023-06-10T04:51:00;15.40;99.90
7163;DHT22;3623;47.098;15.446;2023-06-10T04:53:28;15.40;99.90
7163;DHT22;3623;47.098;15.446;2023-06-10T04:55:56;15.50;99.90
7163;DHT22;3623;47.098;15.446;2023-06-10T04:58:23;15.50;99.90
7163;DHT22;3623;47.098;15.446;2023-06-10T05:00:50;15.60;99.90
7163;DHT22;3623;47.098;15.446;2023-06-10T05:03:18;15.50;99.90
7163;DHT22;3623;47.098;15.446;2023-06-10T05:05:45;15.60;99.90
7163;DHT22;3623;47.098;15.446;2023-06-10T05:08:13;15.70;99.90
7163;DHT22;3623;47.098;15.446;2023-06-10T05:10:40;15.70;99.90
7163;DHT22;3623;47.098;15.446;2023-06-10T05:13:07;15.60;99.90
7163;DHT22;3623;47.098;15.446;2023-06-10T05:15:34;15.60;99.90
7163;DHT22;3623;47.098;15.446;2023-06-10T05:18:01;15.70;99.90
7163;DHT22;3623;47.098;15.446;2023-06-10T05:20:30;15.80;99.90
7163;DHT22;3623;47.098;15.446;2023-06-10T05:22:57;15.90;99.90
7163;DHT22;3623;47.098;15.446;2023-06-10T05:25:26;16.00;99.90
7163;DHT22;3623;47.098;15.446;2023-06-10T05:27:53;16.00;99.90
7163;DHT22;3623;47.098;15.446;2023-06-10T05:30:20;16.90;99.90
7163;DHT22;3623;47.098;15.446;2023-06-10T05:32:48;16.20;99.90
7163;DHT22;3623;47.098;15.446;2023-06-10T05:35:16;16.20;99.90
7163;DHT22;3623;47.098;15.446;2023-06-10T05:37:45;16.30;99.90
7163;DHT22;3623;47.098;15.446;2023-06-10T05:40:12;16.50;99.90
7163;DHT22;3623;47.098;15.446;2023-06-10T05:42:39;16.50;99.90
7163;DHT22;3623;47.098;15.446;2023-06-10T05:45:07;16.10;99.90
7163;DHT22;3623;47.098;15.446;2023-06-10T05:47:35;16.60;99.90
7163;DHT22;3623;47.098;15.446;2023-06-10T05:50:02;16.60;99.90
7163;DHT22;3623;47.098;15.446;2023-06-10T05:52:32;16.70;99.90
7163;DHT22;3623;47.098;15.446;2023-06-10T05:55:01;16.80;99.90
7163;DHT22;3623;47.098;15.446;2023-06-10T05:57:28;16.90;99.90
7163;DHT22;3623;47.098;15.446;2023-06-10T05:59:55;17.00;99.90
7163;DHT22;3623;47.098;15.446;2023-06-10T06:02:22;16.70;99.90
7163;DHT22;3623;47.098;15.446;2023-06-10T06:04:49;16.70;99.90
7163;DHT22;3623;47.098;15.446;2023-06-10T06:07:16;17.00;99.90
7163;DHT22;3623;47.098;15.446;2023-06-10T06:09:46;16.90;99.90
7163;DHT22;3623;47.098;15.446;2023-06-10T06:12:14;16.90;99.90
7163;DHT22;3623;47.098;15.446;2023-06-10T06:14:42;17.00;99.90
7163;DHT22;3623;47.098;15.446;2023-06-10T06:17:10;16.90;99.90
7163;DHT22;3623;47.098;15.446;2023-06-10T06:19:38;16.90;99.90
7163;DHT22;3623;47.098;15.446;2023-06-10T06:22:05;17.10;99.90
7163;DHT22;3623;47.098;15.446;2023-06-10T06:24:32;17.20;99.90
7163;DHT22;3623;47.098;15.446;2023-06-10T06:26:59;17.20;99.90
7163;DHT22;3623;47.098;15.446;2023-06-10T06:29:28;17.20;99.90
7163;DHT22;3623;47.098;15.446;2023-06-10T06:31:55;17.40;99.90
7163;DHT22;3623;47.098;15.446;2023-06-10T06:34:23;17.30;99.90
7163;DHT22;3623;47.098;15.446;2023-06-10T06:36:50;17.50;99.90
7163;DHT22;3623;47.098;15.446;2023-06-10T06:39:17;17.50;99.90
7163;DHT22;3623;47.098;15.446;2023-06-10T06:41:44;17.60;99.90
7163;DHT22;3623;47.098;15.446;2023-06-10T06:44:11;17.70;99.90
7163;DHT22;3623;47.098;15.446;2023-06-10T06:46:39;17.70;99.90
7163;DHT22;3623;47.098;15.446;2023-06-10T06:49:07;17.80;99.90
7163;DHT22;3623;47.098;15.446;2023-06-10T06:51:34;17.80;99.90
7163;DHT22;3623;47.098;15.446;2023-06-10T06:54:01;18.00;99.90
7163;DHT22;3623;47.098;15.446;2023-06-10T06:56:28;18.00;99.90
7163;DHT22;3623;47.098;15.446;2023-06-10T06:58:55;18.20;99.90
7163;DHT22;3623;47.098;15.446;2023-06-10T07:01:22;18.20;99.90
7163;DHT22;3623;47.098;15.446;2023-06-10T07:03:50;18.30;99.90
7163;DHT22;3623;47.098;15.446;2023-06-10T07:06:18;18.60;99.90
7163;DHT22;3623;47.098;15.446;2023-06-10T07:08:45;18.20;99.90
7163;DHT22;3623;47.098;15.446;2023-06-10T07:11:12;18.20;99.90
7163;DHT22;3623;47.098;15.446;2023-06-10T07:13:39;18.20;99.90
7163;DHT22;3623;47.098;15.446;2023-06-10T07:16:06;18.20;99.90
7163;DHT22;3623;47.098;15.446;2023-06-10T07:18:33;18.60;99.90
7163;DHT22;3623;47.098;15.446;2023-06-10T07:21:02;18.30;99.90
7163;DHT22;3623;47.098;15.446;2023-06-10T07:23:29;18.20;99.90
7163;DHT22;3623;47.098;15.446;2023-06-10T07:25:56;18.40;99.90
7163;DHT22;3623;47.098;15.446;2023-06-10T07:28:23;18.40;99.90
7163;DHT22;3623;47.098;15.446;2023-06-10T07:30:50;18.20;99.90
7163;DHT22;3623;47.098;15.446;2023-06-10T07:33:17;18.30;99.90
7163;DHT22;3623;47.098;15.446;2023-06-10T07:35:44;18.50;99.90
7163;DHT22;3623;47.098;15.446;2023-06-10T07:38:13;18.50;99.90
7163;DHT22;3623;47.098;15.446;2023-06-10T07:40:40;18.70;99.90
7163;DHT22;3623;47.098;15.446;2023-06-10T07:43:08;18.60;99.90
7163;DHT22;3623;47.098;15.446;2023-06-10T07:45:35;19.20;99.90
7163;DHT22;3623;47.098;15.446;2023-06-10T07:48:02;18.80;99.90
7163;DHT22;3623;47.098;15.446;2023-06-10T07:50:29;18.80;99.90
7163;DHT22;3623;47.098;15.446;2023-06-10T07:52:56;18.90;99.90
7163;DHT22;3623;47.098;15.446;2023-06-10T07:55:24;18.90;99.90
7163;DHT22;3623;47.098;15.446;2023-06-10T07:57:53;19.10;99.90
7163;DHT22;3623;47.098;15.446;2023-06-10T08:00:21;19.10;99.90
7163;DHT22;3623;47.098;15.446;2023-06-10T08:02:48;19.00;99.90
7163;DHT22;3623;47.098;15.446;2023-06-10T08:05:16;19.00;99.90
7163;DHT22;3623;47.098;15.446;2023-06-10T08:07:44;19.30;99.90
7163;DHT22;3623;47.098;15.446;2023-06-10T08:12:40;19.30;99.90
7163;DHT22;3623;47.098;15.446;2023-06-10T08:15:08;19.30;99.90
7163;DHT22;3623;47.098;15.446;2023-06-10T08:17:37;19.40;99.90
7163;DHT22;3623;47.098;15.446;2023-06-10T08:20:05;19.50;99.90
7163;DHT22;3623;47.098;15.446;2023-06-10T08:22:32;19.60;99.90
7163;DHT22;3623;47.098;15.446;2023-06-10T08:24:59;19.70;99.90
7163;DHT22;3623;47.098;15.446;2023-06-10T08:27:26;19.90;99.90
7163;DHT22;3623;47.098;15.446;2023-06-10T08:29:55;19.70;99.90
7163;DHT22;3623;47.098;15.446;2023-06-10T08:32:22;19.90;99.90
7163;DHT22;3623;47.098;15.446;2023-06-10T08:34:49;20.00;99.90
7163;DHT22;3623;47.098;15.446;2023-06-10T08:37:16;20.00;99.90
7163;DHT22;3623;47.098;15.446;2023-06-10T08:39:43;20.10;99.90
7163;DHT22;3623;47.098;15.446;2023-06-10T08:42:18;20.30;99.90
7163;DHT22;3623;47.098;15.446;2023-06-10T08:44:50;20.40;99.90
7163;DHT22;3623;47.098;15.446;2023-06-10T08:47:23;20.30;99.90
7163;DHT22;3623;47.098;15.446;2023-06-10T08:49:50;20.40;99.90
7163;DHT22;3623;47.098;15.446;2023-06-10T08:52:20;20.10;99.90
7163;DHT22;3623;47.098;15.446;2023-06-10T08:54:52;20.10;99.90
7163;DHT22;3623;47.098;15.446;2023-06-10T08:57:19;20.00;99.90
7163;DHT22;3623;47.098;15.446;2023-06-10T08:59:47;19.90;99.90
7163;DHT22;3623;47.098;15.446;2023-06-10T09:02:15;20.10;99.90
7163;DHT22;3623;47.098;15.446;2023-06-10T09:04:47;19.70;99.90
7163;DHT22;3623;47.098;15.446;2023-06-10T09:07:16;20.10;99.90
7163;DHT22;3623;47.098;15.446;2023-06-10T09:09:44;20.00;99.90
7163;DHT22;3623;47.098;15.446;2023-06-10T09:12:13;20.40;99.90
7163;DHT22;3623;47.098;15.446;2023-06-10T09:14:41;20.60;99.90
7163;DHT22;3623;47.098;15.446;2023-06-10T09:17:08;20.80;99.90
7163;DHT22;3623;47.098;15.446;2023-06-10T09:19:37;20.80;99.90
7163;DHT22;3623;47.098;15.446;2023-06-10T09:22:06;21.00;99.90
7163;DHT22;3623;47.098;15.446;2023-06-10T09:24:34;21.10;99.90
7163;DHT22;3623;47.098;15.446;2023-06-10T09:27:04;21.20;99.90
7163;DHT22;3623;47.098;15.446;2023-06-10T09:29:32;21.10;99.90
7163;DHT22;3623;47.098;15.446;2023-06-10T09:32:12;21.00;99.90
7163;DHT22;3623;47.098;15.446;2023-06-10T09:34:39;21.00;99.90
7163;DHT22;3623;47.098;15.446;2023-06-10T09:37:08;21.00;99.90
7163;DHT22;3623;47.098;15.446;2023-06-10T09:39:38;20.90;99.90
7163;DHT22;3623;47.098;15.446;2023-06-10T09:42:15;20.90;99.90
7163;DHT22;3623;47.098;15.446;2023-06-10T09:44:49;20.90;99.90
7163;DHT22;3623;47.098;15.446;2023-06-10T09:47:20;21.10;99.90
7163;DHT22;3623;47.098;15.446;2023-06-10T09:49:48;20.90;99.90
7163;DHT22;3623;47.098;15.446;2023-06-10T09:52:23;20.80;99.90
7163;DHT22;3623;47.098;15.446;2023-06-10T09:54:51;20.80;99.90
7163;DHT22;3623;47.098;15.446;2023-06-10T09:57:19;20.90;99.90
7163;DHT22;3623;47.098;15.446;2023-06-10T10:00:02;20.90;99.90
7163;DHT22;3623;47.098;15.446;2023-06-10T10:02:45;21.00;99.90
7163;DHT22;3623;47.098;15.446;2023-06-10T10:05:14;21.00;99.90
7163;DHT22;3623;47.098;15.446;2023-06-10T10:07:46;21.10;99.90
7163;DHT22;3623;47.098;15.446;2023-06-10T10:10:18;21.00;99.90
7163;DHT22;3623;47.098;15.446;2023-06-10T10:12:48;21.10;99.90
7163;DHT22;3623;47.098;15.446;2023-06-10T10:15:18;21.10;99.90
7163;DHT22;3623;47.098;15.446;2023-06-10T10:17:53;21.30;99.90
7163;DHT22;3623;47.098;15.446;2023-06-10T10:20:27;21.40;99.90
7163;DHT22;3623;47.098;15.446;2023-06-10T10:22:58;21.30;99.90
7163;DHT22;3623;47.098;15.446;2023-06-10T10:25:29;21.60;99.90
7163;DHT22;3623;47.098;15.446;2023-06-10T10:28:04;21.90;99.90
7163;DHT22;3623;47.098;15.446;2023-06-10T10:30:39;22.30;99.90
7163;DHT22;3623;47.098;15.446;2023-06-10T10:33:12;22.20;99.90
7163;DHT22;3623;47.098;15.446;2023-06-10T10:35:40;22.00;99.90
7163;DHT22;3623;47.098;15.446;2023-06-10T10:38:14;22.00;99.90
7163;DHT22;3623;47.098;15.446;2023-06-10T10:40:49;22.20;99.90
7163;DHT22;3623;47.098;15.446;2023-06-10T10:43:29;22.20;99.90
7163;DHT22;3623;47.098;15.446;2023-06-10T10:46:01;22.30;99.90
7163;DHT22;3623;47.098;15.446;2023-06-10T10:48:36;22.20;99.90
7163;DHT22;3623;47.098;15.446;2023-06-10T10:51:04;22.30;99.90
7163;DHT22;3623;47.098;15.446;2023-06-10T10:53:33;22.80;99.90
7163;DHT22;3623;47.098;15.446;2023-06-10T10:56:05;22.60;99.90
7163;DHT22;3623;47.098;15.446;2023-06-10T10:58:33;22.90;99.90
7163;DHT22;3623;47.098;15.446;2023-06-10T11:01:10;22.80;99.90
7163;DHT22;3623;47.098;15.446;2023-06-10T11:03:43;23.50;99.90
7163;DHT22;3623;47.098;15.446;2023-06-10T11:06:16;23.50;99.90
7163;DHT22;3623;47.098;15.446;2023-06-10T11:08:49;23.20;99.90
7163;DHT22;3623;47.098;15.446;2023-06-10T11:11:19;22.80;99.90
7163;DHT22;3623;47.098;15.446;2023-06-10T11:14:07;23.20;99.90
7163;DHT22;3623;47.098;15.446;2023-06-10T11:16:53;23.40;99.90
7163;DHT22;3623;47.098;15.446;2023-06-10T11:19:55;23.90;99.90
7163;DHT22;3623;47.098;15.446;2023-06-10T11:23:06;24.60;99.90
7163;DHT22;3623;47.098;15.446;2023-06-10T11:26:14;24.90;99.90
7163;DHT22;3623;47.098;15.446;2023-06-10T11:31:45;25.00;99.90
7163;DHT22;3623;47.098;15.446;2023-06-10T11:34:20;25.10;99.90
7163;DHT22;3623;47.098;15.446;2023-06-10T11:36:51;25.50;99.90
7163;DHT22;3623;47.098;15.446;2023-06-10T11:39:20;25.70;99.90
7163;DHT22;3623;47.098;15.446;2023-06-10T11:41:51;25.80;99.90
7163;DHT22;3623;47.098;15.446;2023-06-10T11:44:19;25.80;99.90
7163;DHT22;3623;47.098;15.446;2023-06-10T11:46:48;25.70;99.90
7163;DHT22;3623;47.098;15.446;2023-06-10T11:49:17;25.80;99.90
7163;DHT22;3623;47.098;15.446;2023-06-10T11:51:45;25.50;99.90
7163;DHT22;3623;47.098;15.446;2023-06-10T11:54:17;25.10;99.90
7163;DHT22;3623;47.098;15.446;2023-06-10T11:56:46;25.90;99.90
7163;DHT22;3623;47.098;15.446;2023-06-10T11:59:16;25.70;99.90
7163;DHT22;3623;47.098;15.446;2023-06-10T12:01:44;25.70;99.90
7163;DHT22;3623;47.098;15.446;2023-06-10T12:04:13;25.90;99.90
7163;DHT22;3623;47.098;15.446;2023-06-10T12:06:44;25.80;99.90
7163;DHT22;3623;47.098;15.446;2023-06-10T12:09:17;25.70;99.90
7163;DHT22;3623;47.098;15.446;2023-06-10T12:11:45;25.80;99.90
7163;DHT22;3623;47.098;15.446;2023-06-10T12:14:52;26.30;99.90
7163;DHT22;3623;47.098;15.446;2023-06-10T12:21:37;28.40;99.90
7163;DHT22;3623;47.098;15.446;2023-06-10T12:24:56;28.60;99.90
7163;DHT22;3623;47.098;15.446;2023-06-10T12:30:41;29.00;99.90
7163;DHT22;3623;47.098;15.446;2023-06-10T12:38:18;26.60;99.90
7163;DHT22;3623;47.098;15.446;2023-06-10T12:46:07;23.80;99.90
7163;DHT22;3623;47.098;15.446;2023-06-10T13:03:41;21.70;99.90
7163;DHT22;3623;47.098;15.446;2023-06-10T13:09:30;21.80;99.90
7163;DHT22;3623;47.098;15.446;2023-06-10T13:12:25;22.00;99.90
7163;DHT22;3623;47.098;15.446;2023-06-10T13:15:17;22.20;99.90
7163;DHT22;3623;47.098;15.446;2023-06-10T13:34:29;24.10;99.90
7163;DHT22;3623;47.098;15.446;2023-06-10T13:38:20;24.20;99.90
7163;DHT22;3623;47.098;15.446;2023-06-10T13:41:48;24.10;99.90
7163;DHT22;3623;47.098;15.446;2023-06-10T13:44:58;23.90;99.90
7163;DHT22;3623;47.098;15.446;2023-06-10T13:47:55;23.20;99.90
7163;DHT22;3623;47.098;15.446;2023-06-10T13:54:21;22.10;99.90
7163;DHT22;3623;47.098;15.446;2023-06-10T13:58:16;21.60;99.90
7163;DHT22;3623;47.098;15.446;2023-06-10T14:01:04;21.20;99.90
7163;DHT22;3623;47.098;15.446;2023-06-10T14:03:41;20.80;99.90
7163;DHT22;3623;47.098;15.446;2023-06-10T14:06:25;20.60;99.90
7163;DHT22;3623;47.098;15.446;2023-06-10T14:09:15;20.30;99.90
7163;DHT22;3623;47.098;15.446;2023-06-10T14:12:41;20.20;99.90
7163;DHT22;3623;47.098;15.446;2023-06-10T14:15:14;20.00;99.90
7163;DHT22;3623;47.098;15.446;2023-06-10T14:18:19;19.90;99.90
7163;DHT22;3623;47.098;15.446;2023-06-10T14:20:49;19.70;99.90
7163;DHT22;3623;47.098;15.446;2023-06-10T14:23:40;19.50;99.90
7163;DHT22;3623;47.098;15.446;2023-06-10T14:26:41;19.30;99.90
7163;DHT22;3623;47.098;15.446;2023-06-10T14:29:31;19.20;99.90
7163;DHT22;3623;47.098;15.446;2023-06-10T14:32:28;19.20;99.90
7163;DHT22;3623;47.098;15.446;2023-06-10T14:35:10;19.20;99.90
7163;DHT22;3623;47.098;15.446;2023-06-10T14:37:37;19.10;99.90
7163;DHT22;3623;47.098;15.446;2023-06-10T14:40:39;19.10;99.90
7163;DHT22;3623;47.098;15.446;2023-06-10T14:43:31;19.00;99.90
7163;DHT22;3623;47.098;15.446;2023-06-10T14:49:40;19.20;99.90
7163;DHT22;3623;47.098;15.446;2023-06-10T14:52:11;19.30;99.90
7163;DHT22;3623;47.098;15.446;2023-06-10T14:54:43;19.30;99.90
7163;DHT22;3623;47.098;15.446;2023-06-10T14:58:32;19.30;99.90
7163;DHT22;3623;47.098;15.446;2023-06-10T15:01:28;19.30;99.90
7163;DHT22;3623;47.098;15.446;2023-06-10T15:03:56;19.30;99.90
7163;DHT22;3623;47.098;15.446;2023-06-10T15:06:24;19.30;99.90
7163;DHT22;3623;47.098;15.446;2023-06-10T15:08:52;19.40;99.90
7163;DHT22;3623;47.098;15.446;2023-06-10T15:11:20;19.30;99.90
7163;DHT22;3623;47.098;15.446;2023-06-10T15:13:56;19.40;99.90
7163;DHT22;3623;47.098;15.446;2023-06-10T15:16:23;19.40;99.90
7163;DHT22;3623;47.098;15.446;2023-06-10T15:18:51;19.20;99.90
7163;DHT22;3623;47.098;15.446;2023-06-10T15:21:18;19.30;99.90
7163;DHT22;3623;47.098;15.446;2023-06-10T15:24:23;19.40;99.90
7163;DHT22;3623;47.098;15.446;2023-06-10T15:27:22;19.30;99.90
7163;DHT22;3623;47.098;15.446;2023-06-10T15:30:25;19.30;99.90
7163;DHT22;3623;47.098;15.446;2023-06-10T15:33:38;19.50;99.90
7163;DHT22;3623;47.098;15.446;2023-06-10T15:36:42;19.50;99.90
7163;DHT22;3623;47.098;15.446;2023-06-10T15:39:50;19.50;99.90
7163;DHT22;3623;47.098;15.446;2023-06-10T15:43:02;19.60;99.90
7163;DHT22;3623;47.098;15.446;2023-06-10T15:45:42;19.60;99.90
7163;DHT22;3623;47.098;15.446;2023-06-10T15:48:27;19.70;99.90
7163;DHT22;3623;47.098;15.446;2023-06-10T15:51:08;19.70;99.90
7163;DHT22;3623;47.098;15.446;2023-06-10T15:53:58;19.70;99.90
7163;DHT22;3623;47.098;15.446;2023-06-10T15:56:37;19.70;99.90
7163;DHT22;3623;47.098;15.446;2023-06-10T15:59:17;19.70;99.90
7163;DHT22;3623;47.098;15.446;2023-06-10T16:01:49;19.60;99.90
7163;DHT22;3623;47.098;15.446;2023-06-10T16:04:21;19.50;99.90
7163;DHT22;3623;47.098;15.446;2023-06-10T16:06:51;19.50;99.90
7163;DHT22;3623;47.098;15.446;2023-06-10T16:09:19;19.40;99.90
7163;DHT22;3623;47.098;15.446;2023-06-10T16:11:47;19.40;99.90
7163;DHT22;3623;47.098;15.446;2023-06-10T16:14:14;19.40;99.90
7163;DHT22;3623;47.098;15.446;2023-06-10T16:16:41;19.40;99.90
7163;DHT22;3623;47.098;15.446;2023-06-10T16:19:10;19.30;99.90
7163;DHT22;3623;47.098;15.446;2023-06-10T16:21:37;19.40;99.90
7163;DHT22;3623;47.098;15.446;2023-06-10T16:24:07;19.40;99.90
7163;DHT22;3623;47.098;15.446;2023-06-10T16:26:34;19.40;99.90
7163;DHT22;3623;47.098;15.446;2023-06-10T16:29:01;19.50;99.90
7163;DHT22;3623;47.098;15.446;2023-06-10T16:31:28;19.50;99.90
7163;DHT22;3623;47.098;15.446;2023-06-10T16:33:56;19.40;99.90
7163;DHT22;3623;47.098;15.446;2023-06-10T16:36:34;19.40;99.90
7163;DHT22;3623;47.098;15.446;2023-06-10T16:39:05;19.50;99.90
7163;DHT22;3623;47.098;15.446;2023-06-10T16:41:32;19.40;99.90
7163;DHT22;3623;47.098;15.446;2023-06-10T16:44:02;19.40;99.90
7163;DHT22;3623;47.098;15.446;2023-06-10T16:46:35;19.40;99.90
7163;DHT22;3623;47.098;15.446;2023-06-10T16:49:05;19.40;99.90
7163;DHT22;3623;47.098;15.446;2023-06-10T16:51:33;19.40;99.90
7163;DHT22;3623;47.098;15.446;2023-06-10T16:54:03;19.40;99.90
7163;DHT22;3623;47.098;15.446;2023-06-10T16:56:37;19.40;99.90
7163;DHT22;3623;47.098;15.446;2023-06-10T16:59:06;19.30;99.90
7163;DHT22;3623;47.098;15.446;2023-06-10T17:01:35;19.10;99.90
7163;DHT22;3623;47.098;15.446;2023-06-10T17:04:05;19.10;99.90
7163;DHT22;3623;47.098;15.446;2023-06-10T17:09:28;19.00;99.90
7163;DHT22;3623;47.098;15.446;2023-06-10T17:12:13;18.90;99.90
7163;DHT22;3623;47.098;15.446;2023-06-10T17:14:40;18.90;99.90
7163;DHT22;3623;47.098;15.446;2023-06-10T17:17:10;18.80;99.90
7163;DHT22;3623;47.098;15.446;2023-06-10T17:19:39;18.80;99.90
7163;DHT22;3623;47.098;15.446;2023-06-10T17:22:20;18.80;99.90
7163;DHT22;3623;47.098;15.446;2023-06-10T17:24:50;18.70;99.90
7163;DHT22;3623;47.098;15.446;2023-06-10T17:27:29;18.80;99.90
7163;DHT22;3623;47.098;15.446;2023-06-10T17:30:17;18.70;99.90
7163;DHT22;3623;47.098;15.446;2023-06-10T17:33:01;18.60;99.90